sensor_id;sensor_type;location;lat;lon;timestamp;temperature;humidity
17954;DHT22;9102;53.548;9.926;2024-01-07T00:00:24;-0.20;99.90
17954;DHT22;9102;53.548;9.926;2024-01-07T00:02:51;-0.20;99.90
17954;DHT22;9102;53.548;9.926;2024-01-07T00:05:19;-0.30;99.90
17954;DHT22;9102;53.548;9.926;2024-01-07T00:07:46;-0.30;99.90
17954;DHT22;9102;53.548;9.926;2024-01-07T00:10:14;-0.30;99.90
17954;DHT22;9102;53.548;9.926;2024-01-07T00:12:40;-0.40;99.90
17954;DHT22;9102;53.548;9.926;2024-01-07T00:15:08;-0.40;99.90
17954;DHT22;9102;53.548;9.926;2024-01-07T00:17:35;-0.40;99.90
17954;DHT22;9102;53.548;9.926;2024-01-07T00:20:02;-0.50;99.90
17954;DHT22;9102;53.548;9.926;2024-01-07T00:22:30;-0.50;99.90
17954;DHT22;9102;53.548;9.926;2024-01-07T00:24:57;-0.50;99.90
17954;DHT22;9102;53.548;9.926;2024-01-07T00:27:24;-0.50;99.90
17954;DHT22;9102;53.548;9.926;2024-01-07T00:29:51;-0.60;99.90
17954;DHT22;9102;53.548;9.926;2024-01-07T00:32:17;-0.60;99.90
17954;DHT22;9102;53.548;9.926;2024-01-07T00:34:44;-0.60;99.90
17954;DHT22;9102;53.548;9.926;2024-01-07T00:37:13;-0.70;99.90
17954;DHT22;9102;53.548;9.926;2024-01-07T00:39:41;-0.70;99.90
17954;DHT22;9102;53.548;9.926;2024-01-07T00:42:09;-0.70;99.90
17954;DHT22;9102;53.548;9.926;2024-01-07T00:44:37;-0.70;99.90
17954;DHT22;9102;53.548;9.926;2024-01-07T00:47:04;-0.70;99.90
17954;DHT22;9102;53.548;9.926;2024-01-07T00:49:31;-0.70;99.90
17954;DHT22;9102;53.548;9.926;2024-01-07T00:51:57;-0.70;99.90
17954;DHT22;9102;53.548;9.926;2024-01-07T00:54:24;-0.80;99.90
17954;DHT22;9102;53.548;9.926;2024-01-07T00:56:52;-0.80;99.90
17954;DHT22;9102;53.548;9.926;2024-01-07T00:59:19;-0.80;99.90
17954;DHT22;9102;53.548;9.926;2024-01-07T01:01:46;-0.80;99.90
17954;DHT22;9102;53.548;9.926;2024-01-07T01:04:13;-0.80;99.90
17954;DHT22;9102;53.548;9.926;2024-01-07T01:06:40;-0.80;99.90
17954;DHT22;9102;53.548;9.926;2024-01-07T01:09:07;-0.80;99.90
17954;DHT22;9102;53.548;9.926;2024-01-07T01:11:34;-0.80;99.90
17954;DHT22;9102;53.548;9.926;2024-01-07T01:14:02;-0.80;99.90
17954;DHT22;9102;53.548;9.926;2024-01-07T01:16:29;-0.90;99.90
17954;DHT22;9102;53.548;9.926;2024-01-07T01:18:56;-0.90;99.90
17954;DHT22;9102;53.548;9.926;2024-01-07T01:21:22;-0.80;99.90
17954;DHT22;9102;53.548;9.926;2024-01-07T01:23:52;-0.90;99.90
17954;DHT22;9102;53.548;9.926;2024-01-07T01:26:19;-0.90;99.90
17954;DHT22;9102;53.548;9.926;2024-01-07T01:28:45;-0.90;99.90
17954;DHT22;9102;53.548;9.926;2024-01-07T01:31:14;-0.90;99.90
17954;DHT22;9102;53.548;9.926;2024-01-07T01:33:41;-0.90;99.90
17954;DHT22;9102;53.548;9.926;2024-01-07T01:36:08;-0.90;99.90
17954;DHT22;9102;53.548;9.926;2024-01-07T01:38:35;-0.90;99.90
17954;DHT22;9102;53.548;9.926;2024-01-07T01:41:02;-0.90;99.90
17954;DHT22;9102;53.548;9.926;2024-01-07T01:43:30;-0.90;99.90
17954;DHT22;9102;53.548;9.926;2024-01-07T01:45:58;-0.90;99.90
17954;DHT22;9102;53.548;9.926;2024-01-07T01:48:30;-0.90;99.90
17954;DHT22;9102;53.548;9.926;2024-01-07T01:50:57;-0.90;99.90
17954;DHT22;9102;53.548;9.926;2024-01-07T01:53:24;-0.90;99.90
17954;DHT22;9102;53.548;9.926;2024-01-07T01:55:53;-0.90;99.90
17954;DHT22;9102;53.548;9.926;2024-01-07T01:58:22;-1.00;99.90
17954;DHT22;9102;53.548;9.926;2024-01-07T02:00:51;-0.90;99.90
17954;DHT22;9102;53.548;9.926;2024-01-07T02:03:18;-0.90;99.90
17954;DHT22;9102;53.548;9.926;2024-01-07T02:05:48;-0.90;99.90
17954;DHT22;9102;53.548;9.926;2024-01-07T02:08:15;-0.90;99.90
17954;DHT22;9102;53.548;9.926;2024-01-07T02:10:42;-0.80;99.90
17954;DHT22;9102;53.548;9.926;2024-01-07T02:13:10;-0.80;99.90
17954;DHT22;9102;53.548;9.926;2024-01-07T02:15:37;-0.80;99.90
17954;DHT22;9102;53.548;9.926;2024-01-07T02:18:05;-0.80;99.90
17954;DHT22;9102;53.548;9.926;2024-01-07T02:20:33;-0.80;99.90
17954;DHT22;9102;53.548;9.926;2024-01-07T02:23:02;-0.80;99.90
17954;DHT22;9102;53.548;9.926;2024-01-07T02:25:35;-0.80;99.90
17954;DHT22;9102;53.548;9.926;2024-01-07T02:28:02;-0.70;99.90
17954;DHT22;9102;53.548;9.926;2024-01-07T02:30:28;-0.70;99.90
17954;DHT22;9102;53.548;9.926;2024-01-07T02:32:55;-0.70;99.90
17954;DHT22;9102;53.548;9.926;2024-01-07T02:35:22;-0.70;99.90
17954;DHT22;9102;53.548;9.926;2024-01-07T02:37:49;-0.60;99.90
17954;DHT22;9102;53.548;9.926;2024-01-07T02:40:16;-0.60;99.90
17954;DHT22;9102;53.548;9.926;2024-01-07T02:42:44;-0.60;99.90
17954;DHT22;9102;53.548;9.926;2024-01-07T02:45:11;-0.50;99.90
17954;DHT22;9102;53.548;9.926;2024-01-07T02:47:38;-0.50;99.90
17954;DHT22;9102;53.548;9.926;2024-01-07T02:50:06;-0.50;99.90
17954;DHT22;9102;53.548;9.926;2024-01-07T02:52:33;-0.50;99.90
17954;DHT22;9102;53.548;9.926;2024-01-07T02:55:00;-0.50;99.90
17954;DHT22;9102;53.548;9.926;2024-01-07T02:57:27;-0.50;99.90
17954;DHT22;9102;53.548;9.926;2024-01-07T02:59:55;-0.50;99.90
17954;DHT22;9102;53.548;9.926;2024-01-07T03:02:22;-0.40;99.90
17954;DHT22;9102;53.548;9.926;2024-01-07T03:04:49;-0.40;99.90
17954;DHT22;9102;53.548;9.926;2024-01-07T03:07:15;-0.40;99.90
17954;DHT22;9102;53.548;9.926;2024-01-07T03:09:43;-0.40;99.90
17954;DHT22;9102;53.548;9.926;2024-01-07T03:12:09;-0.40;99.90
17954;DHT22;9102;53.548;9.926;2024-01-07T03:14:36;-0.40;99.90
17954;DHT22;9102;53.548;9.926;2024-01-07T03:17:04;-0.40;99.90
17954;DHT22;9102;53.548;9.926;2024-01-07T03:19:32;-0.40;99.90
17954;DHT22;9102;53.548;9.926;2024-01-07T03:21:58;-0.40;99.90
17954;DHT22;9102;53.548;9.926;2024-01-07T03:24:25;-0.30;99.90
17954;DHT22;9102;53.548;9.926;2024-01-07T03:26:52;-0.30;99.90
17954;DHT22;9102;53.548;9.926;2024-01-07T03:29:19;-0.30;99.90
17954;DHT22;9102;53.548;9.926;2024-01-07T03:31:48;-0.30;99.90
17954;DHT22;9102;53.548;9.926;2024-01-07T03:34:17;-0.30;99.90
17954;DHT22;9102;53.548;9.926;2024-01-07T03:36:44;-0.40;99.90
17954;DHT22;9102;53.548;9.926;2024-01-07T03:39:11;-0.30;99.90
17954;DHT22;9102;53.548;9.926;2024-01-07T03:41:38;-0.30;99.90
17954;DHT22;9102;53.548;9.926;2024-01-07T03:44:04;-0.20;99.90
17954;DHT22;9102;53.548;9.926;2024-01-07T03:46:31;-0.20;99.90
17954;DHT22;9102;53.548;9.926;2024-01-07T03:48:58;-0.20;99.90
17954;DHT22;9102;53.548;9.926;2024-01-07T03:51:26;-0.10;99.90
17954;DHT22;9102;53.548;9.926;2024-01-07T03:53:53;-0.10;99.90
17954;DHT22;9102;53.548;9.926;2024-01-07T03:56:20;-0.10;99.90
17954;DHT22;9102;53.548;9.926;2024-01-07T03:58:46;-0.10;99.90
17954;DHT22;9102;53.548;9.926;2024-01-07T04:01:16;-0.10;99.90
17954;DHT22;9102;53.548;9.926;2024-01-07T04:03:43;0.00;99.90
17954;DHT22;9102;53.548;9.926;2024-01-07T04:06:10;0.00;99.90
17954;DHT22;9102;53.548;9.926;2024-01-07T04:08:38;0.00;99.90
17954;DHT22;9102;53.548;9.926;2024-01-07T04:11:05;0.00;99.90
17954;DHT22;9102;53.548;9.926;2024-01-07T04:13:32;0.00;99.90
17954;DHT22;9102;53.548;9.926;2024-01-07T04:15:58;0.00;99.90
17954;DHT22;9102;53.548;9.926;2024-01-07T04:18:25;0.00;99.90
17954;DHT22;9102;53.548;9.926;2024-01-07T04:20:52;0.00;99.90
17954;DHT22;9102;53.548;9.926;2024-01-07T04:23:19;0.10;99.90
17954;DHT22;9102;53.548;9.926;2024-01-07T04:25:47;0.10;99.90
17954;DHT22;9102;53.548;9.926;2024-01-07T04:28:14;0.10;99.90
17954;DHT22;9102;53.548;9.926;2024-01-07T04:30:41;0.10;99.90
17954;DHT22;9102;53.548;9.926;2024-01-07T04:33:07;0.10;99.90
17954;DHT22;9102;53.548;9.926;2024-01-07T04:35:34;0.10;99.90
17954;DHT22;9102;53.548;9.926;2024-01-07T04:38:02;0.10;99.90
17954;DHT22;9102;53.548;9.926;2024-01-07T04:40:28;0.20;99.90
17954;DHT22;9102;53.548;9.926;2024-01-07T04:42:57;0.20;99.90
17954;DHT22;9102;53.548;9.926;2024-01-07T04:45:23;0.20;99.90
17954;DHT22;9102;53.548;9.926;2024-01-07T04:47:52;0.20;99.90
17954;DHT22;9102;53.548;9.926;2024-01-07T04:50:19;0.20;99.90
17954;DHT22;9102;53.548;9.926;2024-01-07T04:52:46;0.30;99.90
17954;DHT22;9102;53.548;9.926;2024-01-07T04:55:13;0.30;99.90
17954;DHT22;9102;53.548;9.926;2024-01-07T04:57:40;0.30;99.90
17954;DHT22;9102;53.548;9.926;2024-01-07T05:00:10;0.30;99.90
17954;DHT22;9102;53.548;9.926;2024-01-07T05:02:37;0.30;99.90
17954;DHT22;9102;53.548;9.926;2024-01-07T05:05:04;0.30;99.90
17954;DHT22;9102;53.548;9.926;2024-01-07T05:07:31;0.30;99.90
17954;DHT22;9102;53.548;9.926;2024-01-07T05:09:58;0.40;99.90
17954;DHT22;9102;53.548;9.926;2024-01-07T05:12:25;0.40;99.90
17954;DHT22;9102;53.548;9.926;2024-01-07T05:14:51;0.40;99.90
17954;DHT22;9102;53.548;9.926;2024-01-07T05:17:20;0.40;99.90
17954;DHT22;9102;53.548;9.926;2024-01-07T05:19:47;0.40;99.90
17954;DHT22;9102;53.548;9.926;2024-01-07T05:22:13;0.40;99.90
17954;DHT22;9102;53.548;9.926;2024-01-07T05:24:40;0.40;99.90
17954;DHT22;9102;53.548;9.926;2024-01-07T05:27:08;0.40;99.90
17954;DHT22;9102;53.548;9.926;2024-01-07T05:29:35;0.40;99.90
17954;DHT22;9102;53.548;9.926;2024-01-07T05:32:02;0.40;99.90
17954;DHT22;9102;53.548;9.926;2024-01-07T05:34:31;0.50;99.90
17954;DHT22;9102;53.548;9.926;2024-01-07T05:36:58;0.50;99.90
17954;DHT22;9102;53.548;9.926;2024-01-07T05:39:25;0.50;99.90
17954;DHT22;9102;53.548;9.926;2024-01-07T05:41:52;0.50;99.90
17954;DHT22;9102;53.548;9.926;2024-01-07T05:44:18;0.60;99.90
17954;DHT22;9102;53.548;9.926;2024-01-07T05:46:45;0.50;99.90
17954;DHT22;9102;53.548;9.926;2024-01-07T05:49:12;0.50;99.90
17954;DHT22;9102;53.548;9.926;2024-01-07T05:51:40;0.50;99.90
17954;DHT22;9102;53.548;9.926;2024-01-07T05:54:07;0.50;99.90
17954;DHT22;9102;53.548;9.926;2024-01-07T05:56:38;0.50;99.90
17954;DHT22;9102;53.548;9.926;2024-01-07T05:59:05;0.50;99.90
17954;DHT22;9102;53.548;9.926;2024-01-07T06:01:32;0.50;99.90
17954;DHT22;9102;53.548;9.926;2024-01-07T06:04:00;0.50;99.90
17954;DHT22;9102;53.548;9.926;2024-01-07T06:06:27;0.40;99.90
17954;DHT22;9102;53.548;9.926;2024-01-07T06:08:56;0.40;99.90
17954;DHT22;9102;53.548;9.926;2024-01-07T06:11:22;0.40;99.90
17954;DHT22;9102;53.548;9.926;2024-01-07T06:13:49;0.40;99.90
17954;DHT22;9102;53.548;9.926;2024-01-07T06:16:16;0.40;99.90
17954;DHT22;9102;53.548;9.926;2024-01-07T06:18:43;0.40;99.90
17954;DHT22;9102;53.548;9.926;2024-01-07T06:21:10;0.40;99.90
17954;DHT22;9102;53.548;9.926;2024-01-07T06:23:36;0.40;99.90
17954;DHT22;9102;53.548;9.926;2024-01-07T06:26:05;0.40;99.90
17954;DHT22;9102;53.548;9.926;2024-01-07T06:28:32;0.30;99.90
17954;DHT22;9102;53.548;9.926;2024-01-07T06:30:59;0.40;99.90
17954;DHT22;9102;53.548;9.926;2024-01-07T06:33:26;0.30;99.90
17954;DHT22;9102;53.548;9.926;2024-01-07T06:35:53;0.30;99.90
17954;DHT22;9102;53.548;9.926;2024-01-07T06:38:20;0.30;99.90
17954;DHT22;9102;53.548;9.926;2024-01-07T06:40:47;0.30;99.90
17954;DHT22;9102;53.548;9.926;2024-01-07T06:43:15;0.30;99.90
17954;DHT22;9102;53.548;9.926;2024-01-07T06:45:42;0.20;99.90
17954;DHT22;9102;53.548;9.926;2024-01-07T06:48:10;0.20;99.90
17954;DHT22;9102;53.548;9.926;2024-01-07T06:50:36;0.20;99.90
17954;DHT22;9102;53.548;9.926;2024-01-07T06:53:03;0.20;99.90
17954;DHT22;9102;53.548;9.926;2024-01-07T06:55:30;0.20;99.90
17954;DHT22;9102;53.548;9.926;2024-01-07T06:57:57;0.20;99.90
17954;DHT22;9102;53.548;9.926;2024-01-07T07:00:25;0.20;99.90
17954;DHT22;9102;53.548;9.926;2024-01-07T07:02:52;0.20;99.90
17954;DHT22;9102;53.548;9.926;2024-01-07T07:05:20;0.20;99.90
17954;DHT22;9102;53.548;9.926;2024-01-07T07:07:46;0.20;99.90
17954;DHT22;9102;53.548;9.926;2024-01-07T07:10:13;0.20;99.90
17954;DHT22;9102;53.548;9.926;2024-01-07T07:12:40;0.20;99.90
17954;DHT22;9102;53.548;9.926;2024-01-07T07:15:08;0.20;99.90
17954;DHT22;9102;53.548;9.926;2024-01-07T07:17:37;0.20;99.90
17954;DHT22;9102;53.548;9.926;2024-01-07T07:20:05;0.20;99.90
17954;DHT22;9102;53.548;9.926;2024-01-07T07:22:32;0.20;99.90
17954;DHT22;9102;53.548;9.926;2024-01-07T07:24:59;0.20;99.90
17954;DHT22;9102;53.548;9.926;2024-01-07T07:27:26;0.20;99.90
17954;DHT22;9102;53.548;9.926;2024-01-07T07:29:53;0.20;99.90
17954;DHT22;9102;53.548;9.926;2024-01-07T07:32:20;0.20;99.90
17954;DHT22;9102;53.548;9.926;2024-01-07T07:34:48;0.20;99.90
17954;DHT22;9102;53.548;9.926;2024-01-07T07:37:15;0.20;99.90
17954;DHT22;9102;53.548;9.926;2024-01-07T07:39:42;0.20;99.90
17954;DHT22;9102;53.548;9.926;2024-01-07T07:42:09;0.20;99.90
17954;DHT22;9102;53.548;9.926;2024-01-07T07:44:37;0.20;99.90
17954;DHT22;9102;53.548;9.926;2024-01-07T07:47:04;0.20;99.90
17954;DHT22;9102;53.548;9.926;2024-01-07T07:49:33;0.20;99.90
17954;DHT22;9102;53.548;9.926;2024-01-07T07:52:02;0.10;99.90
17954;DHT22;9102;53.548;9.926;2024-01-07T07:54:29;0.20;99.90
17954;DHT22;9102;53.548;9.926;2024-01-07T07:56:56;0.10;99.90
17954;DHT22;9102;53.548;9.926;2024-01-07T07:59:22;0.10;99.90
17954;DHT22;9102;53.548;9.926;2024-01-07T08:01:49;0.00;99.90
17954;DHT22;9102;53.548;9.926;2024-01-07T08:04:15;0.00;99.90
17954;DHT22;9102;53.548;9.926;2024-01-07T08:06:42;-0.10;99.90
17954;DHT22;9102;53.548;9.926;2024-01-07T08:09:12;-0.10;99.90
17954;DHT22;9102;53.548;9.926;2024-01-07T08:11:38;-0.10;99.90
17954;DHT22;9102;53.548;9.926;2024-01-07T08:14:05;-0.10;99.90
17954;DHT22;9102;53.548;9.926;2024-01-07T08:16:32;-0.20;99.90
17954;DHT22;9102;53.548;9.926;2024-01-07T08:18:59;-0.30;99.90
17954;DHT22;9102;53.548;9.926;2024-01-07T08:21:26;-0.30;99.90
17954;DHT22;9102;53.548;9.926;2024-01-07T08:23:52;-0.40;99.90
17954;DHT22;9102;53.548;9.926;2024-01-07T08:26:21;-0.40;99.90
17954;DHT22;9102;53.548;9.926;2024-01-07T08:28:48;-0.40;99.90
17954;DHT22;9102;53.548;9.926;2024-01-07T08:31:15;-0.40;99.90
17954;DHT22;9102;53.548;9.926;2024-01-07T08:33:42;-0.40;99.90
17954;DHT22;9102;53.548;9.926;2024-01-07T08:36:09;-0.40;99.90
17954;DHT22;9102;53.548;9.926;2024-01-07T08:38:35;-0.40;99.90
17954;DHT22;9102;53.548;9.926;2024-01-07T08:41:02;-0.40;99.90
17954;DHT22;9102;53.548;9.926;2024-01-07T08:43:31;-0.40;99.90
17954;DHT22;9102;53.548;9.926;2024-01-07T08:45:58;-0.40;99.90
17954;DHT22;9102;53.548;9.926;2024-01-07T08:48:25;-0.40;99.90
17954;DHT22;9102;53.548;9.926;2024-01-07T08:50:51;-0.30;99.90
17954;DHT22;9102;53.548;9.926;2024-01-07T08:53:18;-0.50;99.90
17954;DHT22;9102;53.548;9.926;2024-01-07T08:55:45;-0.50;99.90
17954;DHT22;9102;53.548;9.926;2024-01-07T08:58:12;-0.50;99.90
17954;DHT22;9102;53.548;9.926;2024-01-07T09:00:41;-0.50;99.90
17954;DHT22;9102;53.548;9.926;2024-01-07T09:03:08;-0.50;99.90
17954;DHT22;9102;53.548;9.926;2024-01-07T09:05:35;-0.50;99.90
17954;DHT22;9102;53.548;9.926;2024-01-07T09:08:02;-0.60;99.90
17954;DHT22;9102;53.548;9.926;2024-01-07T09:10:28;-0.60;99.90
17954;DHT22;9102;53.548;9.926;2024-01-07T09:12:55;-0.70;99.90
17954;DHT22;9102;53.548;9.926;2024-01-07T09:15:22;-0.70;99.90
17954;DHT22;9102;53.548;9.926;2024-01-07T09:17:50;-0.70;99.90
17954;DHT22;9102;53.548;9.926;2024-01-07T09:20:17;-0.60;99.90
17954;DHT22;9102;53.548;9.926;2024-01-07T09:22:45;-0.50;99.90
17954;DHT22;9102;53.548;9.926;2024-01-07T09:25:13;-0.50;99.90
17954;DHT22;9102;53.548;9.926;2024-01-07T09:27:40;-0.40;99.90
17954;DHT22;9102;53.548;9.926;2024-01-07T09:30:09;-0.40;99.90
17954;DHT22;9102;53.548;9.926;2024-01-07T09:32:39;-0.40;99.90
17954;DHT22;9102;53.548;9.926;2024-01-07T09:35:08;-0.40;99.90
17954;DHT22;9102;53.548;9.926;2024-01-07T09:37:35;-0.50;99.90
17954;DHT22;9102;53.548;9.926;2024-01-07T09:40:02;-0.60;99.90
17954;DHT22;9102;53.548;9.926;2024-01-07T09:42:31;-0.60;99.90
17954;DHT22;9102;53.548;9.926;2024-01-07T09:45:00;-0.60;99.90
17954;DHT22;9102;53.548;9.926;2024-01-07T09:47:28;-0.50;99.90
17954;DHT22;9102;53.548;9.926;2024-01-07T09:49:55;-0.50;99.90
17954;DHT22;9102;53.548;9.926;2024-01-07T09:52:25;-0.50;99.90
17954;DHT22;9102;53.548;9.926;2024-01-07T09:54:57;-0.60;99.90
17954;DHT22;9102;53.548;9.926;2024-01-07T09:57:25;-0.60;99.90
17954;DHT22;9102;53.548;9.926;2024-01-07T09:59:52;-0.60;99.90
17954;DHT22;9102;53.548;9.926;2024-01-07T10:02:19;-0.60;99.90
17954;DHT22;9102;53.548;9.926;2024-01-07T10:04:47;-0.60;99.90
17954;DHT22;9102;53.548;9.926;2024-01-07T10:07:15;-0.60;99.90
17954;DHT22;9102;53.548;9.926;2024-01-07T10:09:44;-0.60;99.90
17954;DHT22;9102;53.548;9.926;2024-01-07T10:12:11;-0.60;99.90
17954;DHT22;9102;53.548;9.926;2024-01-07T10:14:38;-0.50;99.90
17954;DHT22;9102;53.548;9.926;2024-01-07T10:17:17;-0.60;99.90
17954;DHT22;9102;53.548;9.926;2024-01-07T10:19:44;-0.60;99.90
17954;DHT22;9102;53.548;9.926;2024-01-07T10:22:12;-0.60;99.90
17954;DHT22;9102;53.548;9.926;2024-01-07T10:24:40;-0.60;99.90
17954;DHT22;9102;53.548;9.926;2024-01-07T10:27:09;-0.50;99.90
17954;DHT22;9102;53.548;9.926;2024-01-07T10:29:36;-0.50;99.90
17954;DHT22;9102;53.548;9.926;2024-01-07T10:32:03;-0.60;99.90
17954;DHT22;9102;53.548;9.926;2024-01-07T10:34:32;-0.60;99.90
17954;DHT22;9102;53.548;9.926;2024-01-07T10:36:59;-0.60;99.90
17954;DHT22;9102;53.548;9.926;2024-01-07T10:39:26;-0.50;99.90
17954;DHT22;9102;53.548;9.926;2024-01-07T10:41:54;-0.60;99.90
17954;DHT22;9102;53.548;9.926;2024-01-07T10:44:25;-0.50;99.90
17954;DHT22;9102;53.548;9.926;2024-01-07T10:46:53;-0.30;99.90
17954;DHT22;9102;53.548;9.926;2024-01-07T10:49:22;-0.30;99.90
17954;DHT22;9102;53.548;9.926;2024-01-07T10:51:56;-0.30;99.90
17954;DHT22;9102;53.548;9.926;2024-01-07T10:54:28;-0.20;99.90
17954;DHT22;9102;53.548;9.926;2024-01-07T10:56:58;-0.20;99.90
17954;DHT22;9102;53.548;9.926;2024-01-07T10:59:27;-0.10;99.90
17954;DHT22;9102;53.548;9.926;2024-01-07T11:01:55;-0.10;99.90
17954;DHT22;9102;53.548;9.926;2024-01-07T11:04:26;-0.10;99.90
17954;DHT22;9102;53.548;9.926;2024-01-07T11:07:00;-0.10;99.90
17954;DHT22;9102;53.548;9.926;2024-01-07T11:09:35;-0.10;99.90
17954;DHT22;9102;53.548;9.926;2024-01-07T11:12:03;-0.20;99.90
17954;DHT22;9102;53.548;9.926;2024-01-07T11:14:39;-0.20;99.90
17954;DHT22;9102;53.548;9.926;2024-01-07T11:17:08;-0.30;99.90
17954;DHT22;9102;53.548;9.926;2024-01-07T11:19:35;-0.40;99.90
17954;DHT22;9102;53.548;9.926;2024-01-07T11:22:21;-0.40;99.90
17954;DHT22;9102;53.548;9.926;2024-01-07T11:24:50;-0.40;99.90
17954;DHT22;9102;53.548;9.926;2024-01-07T11:27:17;-0.40;99.90
17954;DHT22;9102;53.548;9.926;2024-01-07T11:29:53;-0.40;99.90
17954;DHT22;9102;53.548;9.926;2024-01-07T11:32:22;-0.40;99.90
17954;DHT22;9102;53.548;9.926;2024-01-07T11:34:50;-0.40;99.90
17954;DHT22;9102;53.548;9.926;2024-01-07T11:37:19;-0.50;99.90
17954;DHT22;9102;53.548;9.926;2024-01-07T11:39:48;-0.50;99.90
17954;DHT22;9102;53.548;9.926;2024-01-07T11:42:16;-0.50;99.90
17954;DHT22;9102;53.548;9.926;2024-01-07T11:44:47;-0.50;99.90
17954;DHT22;9102;53.548;9.926;2024-01-07T11:47:15;-0.40;99.90
17954;DHT22;9102;53.548;9.926;2024-01-07T11:49:42;-0.40;99.90
17954;DHT22;9102;53.548;9.926;2024-01-07T11:52:09;-0.40;99.90
17954;DHT22;9102;53.548;9.926;2024-01-07T11:54:37;-0.30;99.90
17954;DHT22;9102;53.548;9.926;2024-01-07T11:57:04;-0.30;99.90
17954;DHT22;9102;53.548;9.926;2024-01-07T11:59:31;-0.30;99.90
17954;DHT22;9102;53.548;9.926;2024-01-07T12:02:01;-0.30;99.90
17954;DHT22;9102;53.548;9.926;2024-01-07T12:04:29;-0.30;99.90
17954;DHT22;9102;53.548;9.926;2024-01-07T12:06:57;-0.30;99.90
17954;DHT22;9102;53.548;9.926;2024-01-07T12:09:24;-0.30;99.90
17954;DHT22;9102;53.548;9.926;2024-01-07T12:11:51;-0.20;99.90
17954;DHT22;9102;53.548;9.926;2024-01-07T12:14:19;-0.20;99.90
17954;DHT22;9102;53.548;9.926;2024-01-07T12:16:46;-0.20;99.90
17954;DHT22;9102;53.548;9.926;2024-01-07T12:19:14;-0.20;99.90
17954;DHT22;9102;53.548;9.926;2024-01-07T12:21:41;-0.20;99.90
17954;DHT22;9102;53.548;9.926;2024-01-07T12:24:08;-0.20;99.90
17954;DHT22;9102;53.548;9.926;2024-01-07T12:26:35;-0.30;99.90
17954;DHT22;9102;53.548;9.926;2024-01-07T12:29:03;-0.20;99.90
17954;DHT22;9102;53.548;9.926;2024-01-07T12:31:32;-0.20;99.90
17954;DHT22;9102;53.548;9.926;2024-01-07T12:34:00;-0.20;99.90
17954;DHT22;9102;53.548;9.926;2024-01-07T12:36:30;-0.30;99.90
17954;DHT22;9102;53.548;9.926;2024-01-07T12:38:57;-0.30;99.90
17954;DHT22;9102;53.548;9.926;2024-01-07T12:41:24;-0.30;99.90
17954;DHT22;9102;53.548;9.926;2024-01-07T12:43:51;-0.30;99.90
17954;DHT22;9102;53.548;9.926;2024-01-07T12:46:18;-0.30;99.90
17954;DHT22;9102;53.548;9.926;2024-01-07T12:48:45;-0.30;99.90
17954;DHT22;9102;53.548;9.926;2024-01-07T12:51:11;-0.30;99.90
17954;DHT22;9102;53.548;9.926;2024-01-07T12:53:40;-0.30;99.90
17954;DHT22;9102;53.548;9.926;2024-01-07T12:56:07;-0.30;99.90
17954;DHT22;9102;53.548;9.926;2024-01-07T12:58:33;-0.20;99.90
17954;DHT22;9102;53.548;9.926;2024-01-07T13:01:00;-0.40;99.90
17954;DHT22;9102;53.548;9.926;2024-01-07T13:03:27;-0.40;99.90
17954;DHT22;9102;53.548;9.926;2024-01-07T13:05:55;-0.40;99.90
17954;DHT22;9102;53.548;9.926;2024-01-07T13:08:22;-0.40;99.90
17954;DHT22;9102;53.548;9.926;2024-01-07T13:10:52;-0.50;99.90
17954;DHT22;9102;53.548;9.926;2024-01-07T13:13:20;-0.50;99.90
17954;DHT22;9102;53.548;9.926;2024-01-07T13:15:47;-0.60;99.90
17954;DHT22;9102;53.548;9.926;2024-01-07T13:18:16;-0.50;99.90
17954;DHT22;9102;53.548;9.926;2024-01-07T13:20:43;-0.60;99.90
17954;DHT22;9102;53.548;9.926;2024-01-07T13:23:09;-0.70;99.90
17954;DHT22;9102;53.548;9.926;2024-01-07T13:25:36;-0.70;99.90
17954;DHT22;9102;53.548;9.926;2024-01-07T13:28:05;-0.80;99.90
17954;DHT22;9102;53.548;9.926;2024-01-07T13:30:36;-0.80;99.90
17954;DHT22;9102;53.548;9.926;2024-01-07T13:33:03;-0.70;99.90
17954;DHT22;9102;53.548;9.926;2024-01-07T13:35:30;-0.80;99.90
17954;DHT22;9102;53.548;9.926;2024-01-07T13:37:57;-0.70;99.90
17954;DHT22;9102;53.548;9.926;2024-01-07T13:40:24;-0.80;99.90
17954;DHT22;9102;53.548;9.926;2024-01-07T13:42:50;-0.80;99.90
17954;DHT22;9102;53.548;9.926;2024-01-07T13:45:20;-0.80;99.90
17954;DHT22;9102;53.548;9.926;2024-01-07T13:47:48;-0.90;99.90
17954;DHT22;9102;53.548;9.926;2024-01-07T13:50:15;-0.90;99.90
17954;DHT22;9102;53.548;9.926;2024-01-07T13:52:43;-0.90;99.90
17954;DHT22;9102;53.548;9.926;2024-01-07T13:55:10;-1.00;99.90
17954;DHT22;9102;53.548;9.926;2024-01-07T13:57:38;-1.00;99.90
17954;DHT22;9102;53.548;9.926;2024-01-07T14:00:07;-1.10;99.90
17954;DHT22;9102;53.548;9.926;2024-01-07T14:02:37;-1.10;99.90
17954;DHT22;9102;53.548;9.926;2024-01-07T14:05:06;-1.10;99.90
17954;DHT22;9102;53.548;9.926;2024-01-07T14:07:34;-1.10;99.90
17954;DHT22;9102;53.548;9.926;2024-01-07T14:10:01;-1.10;99.90
17954;DHT22;9102;53.548;9.926;2024-01-07T14:12:29;-1.20;99.90
17954;DHT22;9102;53.548;9.926;2024-01-07T14:14:56;-1.20;99.90
17954;DHT22;9102;53.548;9.926;2024-01-07T14:17:24;-1.30;99.90
17954;DHT22;9102;53.548;9.926;2024-01-07T14:19:52;-1.40;99.90
17954;DHT22;9102;53.548;9.926;2024-01-07T14:22:19;-1.40;99.90
17954;DHT22;9102;53.548;9.926;2024-01-07T14:24:46;-1.30;99.90
17954;DHT22;9102;53.548;9.926;2024-01-07T14:27:14;-1.50;99.90
17954;DHT22;9102;53.548;9.926;2024-01-07T14:29:41;-1.50;99.90
17954;DHT22;9102;53.548;9.926;2024-01-07T14:32:08;-1.50;99.90
17954;DHT22;9102;53.548;9.926;2024-01-07T14:34:38;-1.40;99.90
17954;DHT22;9102;53.548;9.926;2024-01-07T14:37:06;-1.60;99.90
17954;DHT22;9102;53.548;9.926;2024-01-07T14:39:33;-1.60;99.90
17954;DHT22;9102;53.548;9.926;2024-01-07T14:42:00;-1.60;99.90
17954;DHT22;9102;53.548;9.926;2024-01-07T14:44:26;-1.70;99.90
17954;DHT22;9102;53.548;9.926;2024-01-07T14:46:53;-1.70;99.90
17954;DHT22;9102;53.548;9.926;2024-01-07T14:49:20;-1.70;99.90
17954;DHT22;9102;53.548;9.926;2024-01-07T14:51:47;-1.70;99.90
17954;DHT22;9102;53.548;9.926;2024-01-07T14:54:15;-1.70;99.90
17954;DHT22;9102;53.548;9.926;2024-01-07T14:56:42;-1.80;99.90
17954;DHT22;9102;53.548;9.926;2024-01-07T14:59:09;-1.90;99.90
17954;DHT22;9102;53.548;9.926;2024-01-07T15:01:36;-1.80;99.90
17954;DHT22;9102;53.548;9.926;2024-01-07T15:04:04;-1.90;99.90
17954;DHT22;9102;53.548;9.926;2024-01-07T15:06:39;-1.80;99.90
17954;DHT22;9102;53.548;9.926;2024-01-07T15:09:06;-1.90;99.90
17954;DHT22;9102;53.548;9.926;2024-01-07T15:11:34;-1.90;99.90
17954;DHT22;9102;53.548;9.926;2024-01-07T15:14:01;-1.80;99.90
17954;DHT22;9102;53.548;9.926;2024-01-07T15:16:33;-1.80;99.90
17954;DHT22;9102;53.548;9.926;2024-01-07T15:19:00;-1.80;99.90
17954;DHT22;9102;53.548;9.926;2024-01-07T15:21:27;-1.70;99.90
17954;DHT22;9102;53.548;9.926;2024-01-07T15:23:54;-1.70;99.90
17954;DHT22;9102;53.548;9.926;2024-01-07T15:26:21;-1.70;99.90
17954;DHT22;9102;53.548;9.926;2024-01-07T15:28:50;-1.70;99.90
17954;DHT22;9102;53.548;9.926;2024-01-07T15:31:17;-1.70;99.90
17954;DHT22;9102;53.548;9.926;2024-01-07T15:33:44;-1.60;99.90
17954;DHT22;9102;53.548;9.926;2024-01-07T15:36:11;-1.60;99.90
17954;DHT22;9102;53.548;9.926;2024-01-07T15:38:37;-1.60;99.90
17954;DHT22;9102;53.548;9.926;2024-01-07T15:41:04;-1.60;99.90
17954;DHT22;9102;53.548;9.926;2024-01-07T15:43:31;-1.60;99.90
17954;DHT22;9102;53.548;9.926;2024-01-07T15:45:59;-1.60;99.90
17954;DHT22;9102;53.548;9.926;2024-01-07T15:48:26;-1.60;99.90
17954;DHT22;9102;53.548;9.926;2024-01-07T15:50:53;-1.70;99.90